sensor_id;sensor_type;location;lat;lon;timestamp;temperature;humidity
36322;DHT22;23564;48.290;11.460;2022-12-07T00:00:52;3.20;1.00
36322;DHT22;23564;48.290;11.460;2022-12-07T00:03:17;3.20;1.00
36322;DHT22;23564;48.290;11.460;2022-12-07T00:05:43;3.20;1.00
36322;DHT22;23564;48.290;11.460;2022-12-07T00:08:08;3.20;1.00
36322;DHT22;23564;48.290;11.460;2022-12-07T00:10:34;3.20;1.00
36322;DHT22;23564;48.290;11.460;2022-12-07T00:13:00;3.20;1.00
36322;DHT22;23564;48.290;11.460;2022-12-07T00:15:25;3.10;1.00
36322;DHT22;23564;48.290;11.460;2022-12-07T00:17:51;3.20;1.00
36322;DHT22;23564;48.290;11.460;2022-12-07T00:20:17;3.20;1.00
36322;DHT22;23564;48.290;11.460;2022-12-07T00:22:42;3.20;1.00
36322;DHT22;23564;48.290;11.460;2022-12-07T00:25:08;3.30;1.00
36322;DHT22;23564;48.290;11.460;2022-12-07T00:27:33;3.30;1.00
36322;DHT22;23564;48.290;11.460;2022-12-07T00:29:59;3.30;1.00
36322;DHT22;23564;48.290;11.460;2022-12-07T00:32:24;3.30;1.00
36322;DHT22;23564;48.290;11.460;2022-12-07T00:34:50;3.30;1.00
36322;DHT22;23564;48.290;11.460;2022-12-07T00:37:16;3.30;1.00
36322;DHT22;23564;48.290;11.460;2022-12-07T00:39:41;3.30;1.00
36322;DHT22;23564;48.290;11.460;2022-12-07T00:42:07;3.20;1.00
36322;DHT22;23564;48.290;11.460;2022-12-07T00:44:32;3.20;1.00
36322;DHT22;23564;48.290;11.460;2022-12-07T00:46:58;3.20;1.00
36322;DHT22;23564;48.290;11.460;2022-12-07T00:49:23;3.20;1.00
36322;DHT22;23564;48.290;11.460;2022-12-07T00:51:49;3.20;1.00
36322;DHT22;23564;48.290;11.460;2022-12-07T00:54:15;3.30;1.00
36322;DHT22;23564;48.290;11.460;2022-12-07T00:56:40;3.20;1.00
36322;DHT22;23564;48.290;11.460;2022-12-07T00:59:06;3.20;1.00
36322;DHT22;23564;48.290;11.460;2022-12-07T01:01:35;3.20;1.00
36322;DHT22;23564;48.290;11.460;2022-12-07T01:04:01;3.30;1.00
36322;DHT22;23564;48.290;11.460;2022-12-07T01:06:28;3.30;1.00
36322;DHT22;23564;48.290;11.460;2022-12-07T01:08:54;3.30;1.00
36322;DHT22;23564;48.290;11.460;2022-12-07T01:11:23;3.30;1.00
36322;DHT22;23564;48.290;11.460;2022-12-07T01:13:53;3.30;1.00
36322;DHT22;23564;48.290;11.460;2022-12-07T01:16:19;3.30;1.00
36322;DHT22;23564;48.290;11.460;2022-12-07T01:18:47;3.30;1.00
36322;DHT22;23564;48.290;11.460;2022-12-07T01:21:16;3.40;1.00
36322;DHT22;23564;48.290;11.460;2022-12-07T01:23:43;3.30;1.00
36322;DHT22;23564;48.290;11.460;2022-12-07T01:26:15;3.30;1.00
36322;DHT22;23564;48.290;11.460;2022-12-07T01:28:41;3.30;1.00
36322;DHT22;23564;48.290;11.460;2022-12-07T01:31:19;3.30;1.00
36322;DHT22;23564;48.290;11.460;2022-12-07T01:33:47;3.40;1.00
36322;DHT22;23564;48.290;11.460;2022-12-07T01:36:28;3.40;1.00
36322;DHT22;23564;48.290;11.460;2022-12-07T01:39:00;3.40;1.00
36322;DHT22;23564;48.290;11.460;2022-12-07T01:41:29;3.40;1.00
36322;DHT22;23564;48.290;11.460;2022-12-07T01:44:14;3.40;1.00
36322;DHT22;23564;48.290;11.460;2022-12-07T01:46:45;3.30;1.00
36322;DHT22;23564;48.290;11.460;2022-12-07T01:49:33;3.30;1.00
36322;DHT22;23564;48.290;11.460;2022-12-07T01:52:22;3.20;1.00
36322;DHT22;23564;48.290;11.460;2022-12-07T01:54:52;3.30;1.00
36322;DHT22;23564;48.290;11.460;2022-12-07T01:57:19;3.30;1.00
36322;DHT22;23564;48.290;11.460;2022-12-07T01:59:47;3.20;1.00
36322;DHT22;23564;48.290;11.460;2022-12-07T02:02:20;3.20;1.00
36322;DHT22;23564;48.290;11.460;2022-12-07T02:04:47;3.10;1.00
36322;DHT22;23564;48.290;11.460;2022-12-07T02:07:12;3.20;1.00
36322;DHT22;23564;48.290;11.460;2022-12-07T02:09:39;3.20;1.00
36322;DHT22;23564;48.290;11.460;2022-12-07T02:12:04;3.20;1.00
36322;DHT22;23564;48.290;11.460;2022-12-07T02:14:30;3.20;1.00
36322;DHT22;23564;48.290;11.460;2022-12-07T02:17:15;3.20;1.00
36322;DHT22;23564;48.290;11.460;2022-12-07T02:20:09;3.20;1.00
36322;DHT22;23564;48.290;11.460;2022-12-07T02:22:48;3.30;1.00
36322;DHT22;23564;48.290;11.460;2022-12-07T02:30:56;3.30;1.00
36322;DHT22;23564;48.290;11.460;2022-12-07T02:33:36;3.30;1.00
36322;DHT22;23564;48.290;11.460;2022-12-07T02:36:06;3.30;1.00
36322;DHT22;23564;48.290;11.460;2022-12-07T02:41:29;3.30;1.00
36322;DHT22;23564;48.290;11.460;2022-12-07T02:44:06;3.30;1.00
36322;DHT22;23564;48.290;11.460;2022-12-07T02:46:37;3.30;1.00
36322;DHT22;23564;48.290;11.460;2022-12-07T02:49:05;3.30;1.00
36322;DHT22;23564;48.290;11.460;2022-12-07T02:51:32;3.30;1.00
36322;DHT22;23564;48.290;11.460;2022-12-07T02:53:59;3.30;1.00
36322;DHT22;23564;48.290;11.460;2022-12-07T03:01:51;3.20;1.00
36322;DHT22;23564;48.290;11.460;2022-12-07T03:07:45;3.20;1.00
36322;DHT22;23564;48.290;11.460;2022-12-07T03:10:22;3.20;1.00
36322;DHT22;23564;48.290;11.460;2022-12-07T03:13:03;3.20;1.00
36322;DHT22;23564;48.290;11.460;2022-12-07T03:18:53;3.20;1.00
36322;DHT22;23564;48.290;11.460;2022-12-07T03:21:37;3.20;1.00
36322;DHT22;23564;48.290;11.460;2022-12-07T03:24:10;3.10;1.00
36322;DHT22;23564;48.290;11.460;2022-12-07T03:26:41;3.20;1.00
36322;DHT22;23564;48.290;11.460;2022-12-07T03:29:14;3.20;1.00
36322;DHT22;23564;48.290;11.460;2022-12-07T03:31:47;3.20;1.00
36322;DHT22;23564;48.290;11.460;2022-12-07T03:34:28;3.20;1.00
36322;DHT22;23564;48.290;11.460;2022-12-07T03:37:01;3.20;1.00
36322;DHT22;23564;48.290;11.460;2022-12-07T03:39:46;3.20;1.00
36322;DHT22;23564;48.290;11.460;2022-12-07T03:42:15;3.20;1.00
36322;DHT22;23564;48.290;11.460;2022-12-07T03:44:42;3.20;1.00
36322;DHT22;23564;48.290;11.460;2022-12-07T03:47:37;3.20;1.00
36322;DHT22;23564;48.290;11.460;2022-12-07T03:50:15;3.10;1.00
36322;DHT22;23564;48.290;11.460;2022-12-07T03:52:57;3.10;1.00
36322;DHT22;23564;48.290;11.460;2022-12-07T03:55:35;3.10;1.00
36322;DHT22;23564;48.290;11.460;2022-12-07T03:58:06;3.10;1.00
36322;DHT22;23564;48.290;11.460;2022-12-07T04:00:33;3.10;1.00
36322;DHT22;23564;48.290;11.460;2022-12-07T04:02:59;3.10;1.00
36322;DHT22;23564;48.290;11.460;2022-12-07T04:05:25;3.10;1.00
36322;DHT22;23564;48.290;11.460;2022-12-07T04:07:50;3.20;1.00
36322;DHT22;23564;48.290;11.460;2022-12-07T04:10:16;3.10;1.00
36322;DHT22;23564;48.290;11.460;2022-12-07T04:12:42;3.20;1.00
36322;DHT22;23564;48.290;11.460;2022-12-07T04:15:08;3.10;1.00
36322;DHT22;23564;48.290;11.460;2022-12-07T04:17:34;3.10;1.00
36322;DHT22;23564;48.290;11.460;2022-12-07T04:20:00;3.10;1.00
36322;DHT22;23564;48.290;11.460;2022-12-07T04:22:26;3.10;1.00
36322;DHT22;23564;48.290;11.460;2022-12-07T04:24:51;3.10;1.00
36322;DHT22;23564;48.290;11.460;2022-12-07T04:27:17;3.10;1.00
36322;DHT22;23564;48.290;11.460;2022-12-07T04:29:42;3.10;1.00
36322;DHT22;23564;48.290;11.460;2022-12-07T04:32:08;3.10;1.00
36322;DHT22;23564;48.290;11.460;2022-12-07T04:34:34;3.10;1.00
36322;DHT22;23564;48.290;11.460;2022-12-07T04:36:59;3.10;1.00
36322;DHT22;23564;48.290;11.460;2022-12-07T04:39:30;3.10;1.00
36322;DHT22;23564;48.290;11.460;2022-12-07T04:41:57;3.10;1.00
36322;DHT22;23564;48.290;11.460;2022-12-07T04:44:23;3.10;1.00
36322;DHT22;23564;48.290;11.460;2022-12-07T04:46:49;3.10;1.00
36322;DHT22;23564;48.290;11.460;2022-12-07T04:49:16;3.00;1.00
36322;DHT22;23564;48.290;11.460;2022-12-07T04:51:41;3.00;1.00
36322;DHT22;23564;48.290;11.460;2022-12-07T04:54:07;3.00;1.00
36322;DHT22;23564;48.290;11.460;2022-12-07T04:56:33;2.90;1.00
36322;DHT22;23564;48.290;11.460;2022-12-07T04:59:00;3.00;1.00
36322;DHT22;23564;48.290;11.460;2022-12-07T05:01:26;3.00;1.00
36322;DHT22;23564;48.290;11.460;2022-12-07T05:03:52;3.00;1.00
36322;DHT22;23564;48.290;11.460;2022-12-07T05:06:17;3.00;1.00
36322;DHT22;23564;48.290;11.460;2022-12-07T05:08:43;3.00;1.00
36322;DHT22;23564;48.290;11.460;2022-12-07T05:11:09;3.00;1.00
36322;DHT22;23564;48.290;11.460;2022-12-07T05:13:55;3.00;1.00
36322;DHT22;23564;48.290;11.460;2022-12-07T05:16:21;3.00;1.00
36322;DHT22;23564;48.290;11.460;2022-12-07T05:18:47;3.00;1.00
36322;DHT22;23564;48.290;11.460;2022-12-07T05:21:12;3.00;1.00
36322;DHT22;23564;48.290;11.460;2022-12-07T05:23:38;3.00;1.00
36322;DHT22;23564;48.290;11.460;2022-12-07T05:26:03;3.00;1.00
36322;DHT22;23564;48.290;11.460;2022-12-07T05:28:29;3.00;1.00
36322;DHT22;23564;48.290;11.460;2022-12-07T05:30:54;2.90;1.00
36322;DHT22;23564;48.290;11.460;2022-12-07T05:33:20;2.90;1.00
36322;DHT22;23564;48.290;11.460;2022-12-07T05:35:45;3.00;1.00
36322;DHT22;23564;48.290;11.460;2022-12-07T05:38:11;3.00;1.00
36322;DHT22;23564;48.290;11.460;2022-12-07T05:40:36;3.00;1.00
36322;DHT22;23564;48.290;11.460;2022-12-07T05:43:02;2.90;1.00
36322;DHT22;23564;48.290;11.460;2022-12-07T05:45:28;2.90;1.00
36322;DHT22;23564;48.290;11.460;2022-12-07T05:47:53;2.90;1.00
36322;DHT22;23564;48.290;11.460;2022-12-07T05:50:19;2.90;1.00
36322;DHT22;23564;48.290;11.460;2022-12-07T05:52:44;2.90;1.00
36322;DHT22;23564;48.290;11.460;2022-12-07T05:55:10;2.90;1.00
36322;DHT22;23564;48.290;11.460;2022-12-07T05:57:36;2.90;1.00
36322;DHT22;23564;48.290;11.460;2022-12-07T06:00:03;2.80;1.00
36322;DHT22;23564;48.290;11.460;2022-12-07T06:02:29;2.90;1.00
36322;DHT22;23564;48.290;11.460;2022-12-07T06:04:55;2.80;1.00
36322;DHT22;23564;48.290;11.460;2022-12-07T06:07:21;2.80;1.00
36322;DHT22;23564;48.290;11.460;2022-12-07T06:09:46;2.90;1.00
36322;DHT22;23564;48.290;11.460;2022-12-07T06:12:13;2.90;1.00
36322;DHT22;23564;48.290;11.460;2022-12-07T06:14:57;2.80;1.00
36322;DHT22;23564;48.290;11.460;2022-12-07T06:17:23;2.80;1.00
36322;DHT22;23564;48.290;11.460;2022-12-07T06:19:49;2.80;1.00
36322;DHT22;23564;48.290;11.460;2022-12-07T06:22:14;2.70;1.00
36322;DHT22;23564;48.290;11.460;2022-12-07T06:24:41;2.70;1.00
36322;DHT22;23564;48.290;11.460;2022-12-07T06:27:07;2.80;1.00
36322;DHT22;23564;48.290;11.460;2022-12-07T06:29:33;2.80;1.00
36322;DHT22;23564;48.290;11.460;2022-12-07T06:31:58;2.80;1.00
36322;DHT22;23564;48.290;11.460;2022-12-07T06:34:25;2.80;1.00
36322;DHT22;23564;48.290;11.460;2022-12-07T06:36:51;2.80;1.00
36322;DHT22;23564;48.290;11.460;2022-12-07T06:39:21;2.80;1.00
36322;DHT22;23564;48.290;11.460;2022-12-07T06:41:47;2.80;1.00
36322;DHT22;23564;48.290;11.460;2022-12-07T06:44:13;2.70;1.00
36322;DHT22;23564;48.290;11.460;2022-12-07T06:46:39;2.70;1.00
36322;DHT22;23564;48.290;11.460;2022-12-07T06:49:05;2.70;1.00
36322;DHT22;23564;48.290;11.460;2022-12-07T06:51:32;2.70;1.00
36322;DHT22;23564;48.290;11.460;2022-12-07T06:53:58;2.70;1.00
36322;DHT22;23564;48.290;11.460;2022-12-07T06:56:24;2.70;1.00
36322;DHT22;23564;48.290;11.460;2022-12-07T06:58:49;2.70;1.00
36322;DHT22;23564;48.290;11.460;2022-12-07T07:01:16;2.70;1.00
36322;DHT22;23564;48.290;11.460;2022-12-07T07:03:43;2.70;1.00
36322;DHT22;23564;48.290;11.460;2022-12-07T07:06:09;2.70;1.00
36322;DHT22;23564;48.290;11.460;2022-12-07T07:08:36;2.70;1.00
36322;DHT22;23564;48.290;11.460;2022-12-07T07:11:02;2.70;1.00
36322;DHT22;23564;48.290;11.460;2022-12-07T07:13:27;2.70;1.00
36322;DHT22;23564;48.290;11.460;2022-12-07T07:15:54;2.60;1.00
36322;DHT22;23564;48.290;11.460;2022-12-07T07:18:20;2.60;1.00
36322;DHT22;23564;48.290;11.460;2022-12-07T07:20:45;2.60;1.00
36322;DHT22;23564;48.290;11.460;2022-12-07T07:23:11;2.60;1.00
36322;DHT22;23564;48.290;11.460;2022-12-07T07:25:36;2.60;1.00
36322;DHT22;23564;48.290;11.460;2022-12-07T07:28:02;2.60;1.00
36322;DHT22;23564;48.290;11.460;2022-12-07T07:30:28;2.50;1.00
36322;DHT22;23564;48.290;11.460;2022-12-07T07:33:01;2.50;1.00
36322;DHT22;23564;48.290;11.460;2022-12-07T07:35:28;2.50;1.00
36322;DHT22;23564;48.290;11.460;2022-12-07T07:37:55;2.50;1.00
36322;DHT22;23564;48.290;11.460;2022-12-07T07:40:21;2.50;1.00
36322;DHT22;23564;48.290;11.460;2022-12-07T07:42:48;2.50;1.00
36322;DHT22;23564;48.290;11.460;2022-12-07T07:45:14;2.50;1.00
36322;DHT22;23564;48.290;11.460;2022-12-07T07:47:40;2.60;1.00
36322;DHT22;23564;48.290;11.460;2022-12-07T07:50:06;2.60;1.00
36322;DHT22;23564;48.290;11.460;2022-12-07T07:52:31;2.50;1.00
36322;DHT22;23564;48.290;11.460;2022-12-07T07:54:57;2.60;1.00
36322;DHT22;23564;48.290;11.460;2022-12-07T07:57:23;2.60;1.00
36322;DHT22;23564;48.290;11.460;2022-12-07T07:59:48;2.60;1.00
36322;DHT22;23564;48.290;11.460;2022-12-07T08:02:16;2.60;1.00
36322;DHT22;23564;48.290;11.460;2022-12-07T08:04:42;2.60;1.00
36322;DHT22;23564;48.290;11.460;2022-12-07T08:07:08;2.60;1.00
36322;DHT22;23564;48.290;11.460;2022-12-07T08:09:33;2.70;1.00
36322;DHT22;23564;48.290;11.460;2022-12-07T08:11:59;2.70;1.00
36322;DHT22;23564;48.290;11.460;2022-12-07T08:14:24;2.70;1.00
36322;DHT22;23564;48.290;11.460;2022-12-07T08:16:51;2.70;1.00
36322;DHT22;23564;48.290;11.460;2022-12-07T08:19:16;2.70;1.00
36322;DHT22;23564;48.290;11.460;2022-12-07T08:21:42;2.80;1.00
36322;DHT22;23564;48.290;11.460;2022-12-07T08:24:07;2.80;1.00
36322;DHT22;23564;48.290;11.460;2022-12-07T08:26:33;2.80;1.00
36322;DHT22;23564;48.290;11.460;2022-12-07T08:28:59;2.90;1.00
36322;DHT22;23564;48.290;11.460;2022-12-07T08:31:25;2.90;1.00
36322;DHT22;23564;48.290;11.460;2022-12-07T08:33:50;3.00;1.00
36322;DHT22;23564;48.290;11.460;2022-12-07T08:36:17;3.00;1.00
36322;DHT22;23564;48.290;11.460;2022-12-07T08:38:42;3.10;1.00
36322;DHT22;23564;48.290;11.460;2022-12-07T08:41:08;3.10;1.00
36322;DHT22;23564;48.290;11.460;2022-12-07T08:43:35;3.10;1.00
36322;DHT22;23564;48.290;11.460;2022-12-07T08:46:11;3.20;1.00
36322;DHT22;23564;48.290;11.460;2022-12-07T08:48:53;3.20;1.00
36322;DHT22;23564;48.290;11.460;2022-12-07T08:51:21;3.20;1.00
36322;DHT22;23564;48.290;11.460;2022-12-07T08:53:48;3.20;1.00
36322;DHT22;23564;48.290;11.460;2022-12-07T08:56:14;3.20;1.00
36322;DHT22;23564;48.290;11.460;2022-12-07T08:58:40;3.30;1.00
36322;DHT22;23564;48.290;11.460;2022-12-07T09:01:05;3.30;1.00
36322;DHT22;23564;48.290;11.460;2022-12-07T09:03:31;3.40;1.00
36322;DHT22;23564;48.290;11.460;2022-12-07T09:05:57;3.50;1.00
36322;DHT22;23564;48.290;11.460;2022-12-07T09:08:28;3.50;1.00
36322;DHT22;23564;48.290;11.460;2022-12-07T09:10:55;3.60;99.90
36322;DHT22;23564;48.290;11.460;2022-12-07T09:13:20;3.60;99.90
36322;DHT22;23564;48.290;11.460;2022-12-07T09:15:46;3.70;99.90
36322;DHT22;23564;48.290;11.460;2022-12-07T09:18:11;3.70;99.90
36322;DHT22;23564;48.290;11.460;2022-12-07T09:20:37;3.70;99.90
36322;DHT22;23564;48.290;11.460;2022-12-07T09:23:06;3.60;99.90
36322;DHT22;23564;48.290;11.460;2022-12-07T09:25:32;3.60;99.90
36322;DHT22;23564;48.290;11.460;2022-12-07T09:27:58;3.60;99.90
36322;DHT22;23564;48.290;11.460;2022-12-07T09:30:24;3.60;99.90
36322;DHT22;23564;48.290;11.460;2022-12-07T09:32:52;3.50;99.90
36322;DHT22;23564;48.290;11.460;2022-12-07T09:35:18;3.50;99.90
36322;DHT22;23564;48.290;11.460;2022-12-07T09:37:44;3.50;1.00
36322;DHT22;23564;48.290;11.460;2022-12-07T09:40:09;3.50;1.00
36322;DHT22;23564;48.290;11.460;2022-12-07T09:42:43;3.50;99.90
36322;DHT22;23564;48.290;11.460;2022-12-07T09:45:25;3.40;99.90
36322;DHT22;23564;48.290;11.460;2022-12-07T09:47:52;3.40;1.00
36322;DHT22;23564;48.290;11.460;2022-12-07T09:50:24;3.40;99.90
36322;DHT22;23564;48.290;11.460;2022-12-07T09:52:51;3.40;99.90
36322;DHT22;23564;48.290;11.460;2022-12-07T09:55:27;3.40;99.90
36322;DHT22;23564;48.290;11.460;2022-12-07T09:57:54;3.30;99.90
36322;DHT22;23564;48.290;11.460;2022-12-07T10:00:22;3.30;99.90
36322;DHT22;23564;48.290;11.460;2022-12-07T10:02:59;3.30;99.90
36322;DHT22;23564;48.290;11.460;2022-12-07T10:05:41;3.30;99.90
36322;DHT22;23564;48.290;11.460;2022-12-07T10:08:11;3.20;99.90
36322;DHT22;23564;48.290;11.460;2022-12-07T10:10:37;3.20;99.90
36322;DHT22;23564;48.290;11.460;2022-12-07T10:13:11;3.10;99.90
36322;DHT22;23564;48.290;11.460;2022-12-07T10:15:52;3.00;99.90
36322;DHT22;23564;48.290;11.460;2022-12-07T10:18:36;3.00;99.90
36322;DHT22;23564;48.290;11.460;2022-12-07T10:23:58;3.00;99.90
36322;DHT22;23564;48.290;11.460;2022-12-07T10:26:36;3.00;99.90
36322;DHT22;23564;48.290;11.460;2022-12-07T10:31:43;3.00;99.90
36322;DHT22;23564;48.290;11.460;2022-12-07T10:36:53;3.10;99.90
36322;DHT22;23564;48.290;11.460;2022-12-07T10:39:21;3.10;99.90
36322;DHT22;23564;48.290;11.460;2022-12-07T10:42:00;3.10;99.90
36322;DHT22;23564;48.290;11.460;2022-12-07T10:44:28;3.10;99.90
36322;DHT22;23564;48.290;11.460;2022-12-07T10:50:03;3.20;99.90
36322;DHT22;23564;48.290;11.460;2022-12-07T11:00:08;3.50;99.80
36322;DHT22;23564;48.290;11.460;2022-12-07T11:06:01;3.60;99.90
36322;DHT22;23564;48.290;11.460;2022-12-07T11:09:04;3.70;22.10
36322;DHT22;23564;48.290;11.460;2022-12-07T11:12:20;3.70;1.00
36322;DHT22;23564;48.290;11.460;2022-12-07T11:17:14;3.80;99.90
36322;DHT22;23564;48.290;11.460;2022-12-07T11:25:53;3.90;1.00
36322;DHT22;23564;48.290;11.460;2022-12-07T11:28:33;4.00;99.90
36322;DHT22;23564;48.290;11.460;2022-12-07T11:34:02;4.00;99.90
36322;DHT22;23564;48.290;11.460;2022-12-07T11:36:44;4.00;1.00
36322;DHT22;23564;48.290;11.460;2022-12-07T11:42:26;3.90;99.90
36322;DHT22;23564;48.290;11.460;2022-12-07T11:48:00;4.00;1.00
36322;DHT22;23564;48.290;11.460;2022-12-07T11:53:24;4.10;1.00
36322;DHT22;23564;48.290;11.460;2022-12-07T12:06:37;4.70;1.00
36322;DHT22;23564;48.290;11.460;2022-12-07T12:14:53;4.80;99.90
36322;DHT22;23564;48.290;11.460;2022-12-07T12:20:26;4.80;1.00
36322;DHT22;23564;48.290;11.460;2022-12-07T12:23:00;4.90;99.90
36322;DHT22;23564;48.290;11.460;2022-12-07T12:25:41;4.90;99.90
36322;DHT22;23564;48.290;11.460;2022-12-07T12:28:21;4.90;99.90
36322;DHT22;23564;48.290;11.460;2022-12-07T12:31:09;4.90;10.40
36322;DHT22;23564;48.290;11.460;2022-12-07T12:33:35;4.90;28.80
36322;DHT22;23564;48.290;11.460;2022-12-07T12:50:16;5.00;1.00
36322;DHT22;23564;48.290;11.460;2022-12-07T12:57:36;5.00;99.90
36322;DHT22;23564;48.290;11.460;2022-12-07T13:00:21;4.90;1.00
36322;DHT22;23564;48.290;11.460;2022-12-07T13:02:50;5.00;99.90
36322;DHT22;23564;48.290;11.460;2022-12-07T13:05:22;4.90;99.90
36322;DHT22;23564;48.290;11.460;2022-12-07T13:07:52;4.80;99.90
36322;DHT22;23564;48.290;11.460;2022-12-07T13:15:42;4.50;99.90
36322;DHT22;23564;48.290;11.460;2022-12-07T13:23:21;4.40;1.00
36322;DHT22;23564;48.290;11.460;2022-12-07T13:26:04;4.40;1.00
36322;DHT22;23564;48.290;11.460;2022-12-07T13:28:39;4.30;99.90
36322;DHT22;23564;48.290;11.460;2022-12-07T13:33:57;4.30;99.90
36322;DHT22;23564;48.290;11.460;2022-12-07T13:36:25;4.30;99.90
36322;DHT22;23564;48.290;11.460;2022-12-07T13:38:52;4.40;99.90
36322;DHT22;23564;48.290;11.460;2022-12-07T13:41:20;4.30;99.90
36322;DHT22;23564;48.290;11.460;2022-12-07T13:44:02;4.40;99.90
36322;DHT22;23564;48.290;11.460;2022-12-07T13:46:46;4.40;99.90
36322;DHT22;23564;48.290;11.460;2022-12-07T13:49:28;4.40;99.90
36322;DHT22;23564;48.290;11.460;2022-12-07T13:52:06;4.40;1.00
36322;DHT22;23564;48.290;11.460;2022-12-07T13:54:47;4.40;1.00
36322;DHT22;23564;48.290;11.460;2022-12-07T13:57:15;4.40;1.00
36322;DHT22;23564;48.290;11.460;2022-12-07T13:59:40;4.50;99.90
36322;DHT22;23564;48.290;11.460;2022-12-07T14:02:19;4.60;99.90
36322;DHT22;23564;48.290;11.460;2022-12-07T14:04:45;4.60;99.90
36322;DHT22;23564;48.290;11.460;2022-12-07T14:07:26;4.50;99.90
36322;DHT22;23564;48.290;11.460;2022-12-07T14:12:24;4.50;99.90
36322;DHT22;23564;48.290;11.460;2022-12-07T14:14:51;4.50;99.90
36322;DHT22;23564;48.290;11.460;2022-12-07T14:17:19;4.50;99.90
36322;DHT22;23564;48.290;11.460;2022-12-07T14:19:48;4.50;99.90
36322;DHT22;23564;48.290;11.460;2022-12-07T14:22:38;4.50;99.90
36322;DHT22;23564;48.290;11.460;2022-12-07T14:27:34;4.50;99.90
36322;DHT22;23564;48.290;11.460;2022-12-07T14:30:03;4.40;99.90
36322;DHT22;23564;48.290;11.460;2022-12-07T14:32:30;4.30;99.90
36322;DHT22;23564;48.290;11.460;2022-12-07T14:35:10;4.30;99.90
36322;DHT22;23564;48.290;11.460;2022-12-07T14:37:37;4.30;99.90
36322;DHT22;23564;48.290;11.460;2022-12-07T14:40:04;4.30;1.00
36322;DHT22;23564;48.290;11.460;2022-12-07T14:42:30;4.40;45.40
36322;DHT22;23564;48.290;11.460;2022-12-07T14:44:56;4.30;99.90
36322;DHT22;23564;48.290;11.460;2022-12-07T14:47:23;4.30;99.90
36322;DHT22;23564;48.290;11.460;2022-12-07T14:49:49;4.30;99.90
36322;DHT22;23564;48.290;11.460;2022-12-07T14:52:21;4.30;1.00
36322;DHT22;23564;48.290;11.460;2022-12-07T14:54:47;4.30;1.00
36322;DHT22;23564;48.290;11.460;2022-12-07T14:57:13;4.30;99.90
36322;DHT22;23564;48.290;11.460;2022-12-07T14:59:38;4.30;1.00
36322;DHT22;23564;48.290;11.460;2022-12-07T15:02:05;4.20;99.90
36322;DHT22;23564;48.290;11.460;2022-12-07T15:04:30;4.20;1.00
36322;DHT22;23564;48.290;11.460;2022-12-07T15:06:57;4.20;62.80
36322;DHT22;23564;48.290;11.460;2022-12-07T15:09:23;4.30;45.30
36322;DHT22;23564;48.290;11.460;2022-12-07T15:11:49;4.30;99.90
36322;DHT22;23564;48.290;11.460;2022-12-07T15:14:14;4.30;99.90
36322;DHT22;23564;48.290;11.460;2022-12-07T15:16:42;4.30;99.90
36322;DHT22;23564;48.290;11.460;2022-12-07T15:19:20;4.30;1.00
36322;DHT22;23564;48.290;11.460;2022-12-07T15:21:50;4.30;1.00
36322;DHT22;23564;48.290;11.460;2022-12-07T15:24:16;4.30;1.00
36322;DHT22;23564;48.290;11.460;2022-12-07T15:26:42;4.20;1.00
36322;DHT22;23564;48.290;11.460;2022-12-07T15:29:09;4.30;1.00
36322;DHT22;23564;48.290;11.460;2022-12-07T15:31:35;4.30;1.00
36322;DHT22;23564;48.290;11.460;2022-12-07T15:34:01;4.20;1.00
36322;DHT22;23564;48.290;11.460;2022-12-07T15:36:28;4.20;1.00
36322;DHT22;23564;48.290;11.460;2022-12-07T15:38:55;4.20;57.70
36322;DHT22;23564;48.290;11.460;2022-12-07T15:41:21;4.20;85.50
36322;DHT22;23564;48.290;11.460;2022-12-07T15:43:47;4.20;1.00
36322;DHT22;23564;48.290;11.460;2022-12-07T15:46:33;4.20;11.90
36322;DHT22;23564;48.290;11.460;2022-12-07T15:48:59;4.20;24.90
36322;DHT22;23564;48.290;11.460;2022-12-07T15:51:25;4.20;38.20
36322;DHT22;23564;48.290;11.460;2022-12-07T15:53:51;4.10;11.80
36322;DHT22;23564;48.290;11.460;2022-12-07T15:56:16;4.10;54.70
36322;DHT22;23564;48.290;11.460;2022-12-07T15:58:42;4.20;74.60
36322;DHT22;23564;48.290;11.460;2022-12-07T16:01:16;4.10;99.90
36322;DHT22;23564;48.290;11.460;2022-12-07T16:03:42;4.10;99.90
36322;DHT22;23564;48.290;11.460;2022-12-07T16:06:08;4.10;99.90
36322;DHT22;23564;48.290;11.460;2022-12-07T16:08:34;4.10;99.90
36322;DHT22;23564;48.290;11.460;2022-12-07T16:11:03;4.10;99.90
36322;DHT22;23564;48.290;11.460;2022-12-07T16:13:29;4.00;99.90
36322;DHT22;23564;48.290;11.460;2022-12-07T16:15:55;4.00;99.90
36322;DHT22;23564;48.290;11.460;2022-12-07T16:18:20;3.90;1.00
36322;DHT22;23564;48.290;11.460;2022-12-07T16:20:48;3.90;1.00
36322;DHT22;23564;48.290;11.460;2022-12-07T16:23:15;3.90;1.00
36322;DHT22;23564;48.290;11.460;2022-12-07T16:25:41;3.80;1.00
36322;DHT22;23564;48.290;11.460;2022-12-07T16:28:07;3.80;17.60
36322;DHT22;23564;48.290;11.460;2022-12-07T16:30:33;3.80;37.60
36322;DHT22;23564;48.290;11.460;2022-12-07T16:32:58;3.80;72.00
36322;DHT22;23564;48.290;11.460;2022-12-07T16:35:24;3.80;97.40
36322;DHT22;23564;48.290;11.460;2022-12-07T16:37:49;3.80;99.90
36322;DHT22;23564;48.290;11.460;2022-12-07T16:40:15;3.70;99.90
36322;DHT22;23564;48.290;11.460;2022-12-07T16:42:41;3.70;99.50
36322;DHT22;23564;48.290;11.460;2022-12-07T16:45:06;3.70;89.80
36322;DHT22;23564;48.290;11.460;2022-12-07T16:47:32;3.60;87.00
36322;DHT22;23564;48.290;11.460;2022-12-07T16:49:58;3.60;90.60
36322;DHT22;23564;48.290;11.460;2022-12-07T16:52:23;3.50;97.70
36322;DHT22;23564;48.290;11.460;2022-12-07T16:54:49;3.50;91.10
36322;DHT22;23564;48.290;11.460;2022-12-07T16:57:16;3.50;94.40
36322;DHT22;23564;48.290;11.460;2022-12-07T16:59:42;3.50;99.90
36322;DHT22;23564;48.290;11.460;2022-12-07T17:02:11;3.50;99.90
36322;DHT22;23564;48.290;11.460;2022-12-07T17:04:37;3.50;99.90
36322;DHT22;23564;48.290;11.460;2022-12-07T17:07:05;3.50;99.90
36322;DHT22;23564;48.290;11.460;2022-12-07T17:09:31;3.40;99.90
36322;DHT22;23564;48.290;11.460;2022-12-07T17:11:56;3.40;99.90
36322;DHT22;23564;48.290;11.460;2022-12-07T17:14:22;3.30;99.90
36322;DHT22;23564;48.290;11.460;2022-12-07T17:17:06;3.30;99.90
36322;DHT22;23564;48.290;11.460;2022-12-07T17:19:32;3.30;99.90
36322;DHT22;23564;48.290;11.460;2022-12-07T17:21:57;3.20;99.90
36322;DHT22;23564;48.290;11.460;2022-12-07T17:24:23;3.20;99.90
36322;DHT22;23564;48.290;11.460;2022-12-07T17:26:48;3.20;99.90
36322;DHT22;23564;48.290;11.460;2022-12-07T17:29:16;3.10;99.90
36322;DHT22;23564;48.290;11.460;2022-12-07T17:31:42;3.00;99.90
36322;DHT22;23564;48.290;11.460;2022-12-07T17:34:13;3.00;99.90
36322;DHT22;23564;48.290;11.460;2022-12-07T17:36:39;2.90;99.90
36322;DHT22;23564;48.290;11.460;2022-12-07T17:39:09;2.90;99.90
36322;DHT22;23564;48.290;11.460;2022-12-07T17:41:35;2.90;99.90
36322;DHT22;23564;48.290;11.460;2022-12-07T17:44:20;2.80;99.90
36322;DHT22;23564;48.290;11.460;2022-12-07T17:46:48;2.80;99.90
36322;DHT22;23564;48.290;11.460;2022-12-07T17:49:14;2.80;99.90
36322;DHT22;23564;48.290;11.460;2022-12-07T17:51:40;2.80;99.90